sensor_id;sensor_type;location;lat;lon;timestamp;pressure;altitude;pressure_sealevel;temperature;humidity
55217;BME280;41086;46.736;15.666;2023-02-03T00:00:49;99266.50;;;0.48;100.00
55217;BME280;41086;46.736;15.666;2023-02-03T00:03:16;99267.41;;;0.46;100.00
55217;BME280;41086;46.736;15.666;2023-02-03T00:05:43;99267.63;;;0.33;100.00
55217;BME280;41086;46.736;15.666;2023-02-03T00:08:11;99266.72;;;0.36;100.00
55217;BME280;41086;46.736;15.666;2023-02-03T00:10:38;99270.22;;;0.33;100.00
55217;BME280;41086;46.736;15.666;2023-02-03T00:13:06;99260.75;;;0.28;100.00
55217;BME280;41086;46.736;15.666;2023-02-03T00:15:34;99233.25;;;0.05;100.00
55217;BME280;41086;46.736;15.666;2023-02-03T00:18:00;99243.28;;;0.33;100.00
55217;BME280;41086;46.736;15.666;2023-02-03T00:20:27;99228.34;;;0.42;100.00
55217;BME280;41086;46.736;15.666;2023-02-03T00:23:02;99239.72;;;0.38;100.00
55217;BME280;41086;46.736;15.666;2023-02-03T00:25:29;99230.31;;;0.28;100.00
55217;BME280;41086;46.736;15.666;2023-02-03T00:27:55;99239.84;;;0.29;100.00
55217;BME280;41086;46.736;15.666;2023-02-03T00:30:23;99231.19;;;0.27;100.00
55217;BME280;41086;46.736;15.666;2023-02-03T00:32:51;99234.63;;;0.31;100.00
55217;BME280;41086;46.736;15.666;2023-02-03T00:35:19;99236.34;;;0.32;100.00
55217;BME280;41086;46.736;15.666;2023-02-03T00:37:55;99245.84;;;0.36;100.00
55217;BME280;41086;46.736;15.666;2023-02-03T00:40:24;99259.69;;;0.39;100.00
55217;BME280;41086;46.736;15.666;2023-02-03T00:42:52;99278.91;;;0.34;100.00
55217;BME280;41086;46.736;15.666;2023-02-03T00:45:21;99279.97;;;0.19;100.00
55217;BME280;41086;46.736;15.666;2023-02-03T00:47:48;99276.66;;;0.09;100.00
55217;BME280;41086;46.736;15.666;2023-02-03T00:50:15;99284.47;;;0.08;100.00
55217;BME280;41086;46.736;15.666;2023-02-03T00:52:42;99288.88;;;0.06;100.00
55217;BME280;41086;46.736;15.666;2023-02-03T00:55:09;99283.66;;;0.04;100.00
55217;BME280;41086;46.736;15.666;2023-02-03T00:57:36;99284.56;;;0.02;100.00
55217;BME280;41086;46.736;15.666;2023-02-03T01:00:03;99284.59;;;-0.02;100.00
55217;BME280;41086;46.736;15.666;2023-02-03T01:02:30;99276.88;;;-0.08;100.00
55217;BME280;41086;46.736;15.666;2023-02-03T01:04:56;99271.72;;;-0.12;100.00
55217;BME280;41086;46.736;15.666;2023-02-03T01:07:24;99266.63;;;-0.23;100.00
55217;BME280;41086;46.736;15.666;2023-02-03T01:09:51;99280.44;;;-0.16;100.00
55217;BME280;41086;46.736;15.666;2023-02-03T01:12:18;99276.97;;;-0.15;100.00
55217;BME280;41086;46.736;15.666;2023-02-03T01:14:45;99272.69;;;-0.21;100.00
55217;BME280;41086;46.736;15.666;2023-02-03T01:17:11;99271.81;;;-0.20;100.00
55217;BME280;41086;46.736;15.666;2023-02-03T01:19:38;99273.56;;;-0.20;100.00
55217;BME280;41086;46.736;15.666;2023-02-03T01:22:05;99270.09;;;-0.23;100.00
55217;BME280;41086;46.736;15.666;2023-02-03T01:24:32;99265.88;;;-0.31;100.00
55217;BME280;41086;46.736;15.666;2023-02-03T01:26:58;99269.25;;;-0.23;100.00
55217;BME280;41086;46.736;15.666;2023-02-03T01:29:26;99264.88;;;-0.21;100.00
55217;BME280;41086;46.736;15.666;2023-02-03T01:31:53;99268.44;;;-0.27;100.00
55217;BME280;41086;46.736;15.666;2023-02-03T01:34:20;99271.94;;;-0.31;100.00
55217;BME280;41086;46.736;15.666;2023-02-03T01:36:48;99251.22;;;-0.40;100.00
55217;BME280;41086;46.736;15.666;2023-02-03T01:39:14;99252.88;;;-0.36;100.00
55217;BME280;41086;46.736;15.666;2023-02-03T01:41:44;99255.50;;;-0.34;100.00
55217;BME280;41086;46.736;15.666;2023-02-03T01:44:42;99241.63;;;-0.36;100.00
55217;BME280;41086;46.736;15.666;2023-02-03T01:47:33;99241.56;;;-0.33;100.00
55217;BME280;41086;46.736;15.666;2023-02-03T01:52:47;99244.22;;;-0.36;100.00
55217;BME280;41086;46.736;15.666;2023-02-03T01:55:20;99241.72;;;-0.44;100.00
55217;BME280;41086;46.736;15.666;2023-02-03T01:57:55;99252.16;;;-0.46;100.00
55217;BME280;41086;46.736;15.666;2023-02-03T02:00:24;99231.31;;;-0.46;100.00
55217;BME280;41086;46.736;15.666;2023-02-03T02:02:57;99233.97;;;-0.49;100.00
55217;BME280;41086;46.736;15.666;2023-02-03T02:05:29;99235.75;;;-0.54;100.00
55217;BME280;41086;46.736;15.666;2023-02-03T02:07:59;99224.50;;;-0.56;100.00
55217;BME280;41086;46.736;15.666;2023-02-03T02:10:29;99227.22;;;-0.68;100.00
55217;BME280;41086;46.736;15.666;2023-02-03T02:12:57;99221.16;;;-0.69;100.00
55217;BME280;41086;46.736;15.666;2023-02-03T02:15:43;99237.75;;;-0.76;100.00
55217;BME280;41086;46.736;15.666;2023-02-03T02:26:57;99214.50;;;-0.96;100.00
55217;BME280;41086;46.736;15.666;2023-02-03T02:41:06;99223.41;;;-1.17;100.00
55217;BME280;41086;46.736;15.666;2023-02-03T02:43:49;99223.31;;;-1.09;100.00
55217;BME280;41086;46.736;15.666;2023-02-03T02:46:32;99204.28;;;-1.13;100.00
55217;BME280;41086;46.736;15.666;2023-02-03T02:49:09;99209.47;;;-1.08;100.00
55217;BME280;41086;46.736;15.666;2023-02-03T02:51:40;99228.53;;;-1.07;100.00
55217;BME280;41086;46.736;15.666;2023-02-03T02:54:15;99212.09;;;-1.14;100.00
55217;BME280;41086;46.736;15.666;2023-02-03T02:56:47;99225.00;;;-1.00;100.00
55217;BME280;41086;46.736;15.666;2023-02-03T02:59:15;99217.91;;;-0.86;100.00
55217;BME280;41086;46.736;15.666;2023-02-03T03:01:42;99214.41;;;-0.85;100.00
55217;BME280;41086;46.736;15.666;2023-02-03T03:04:12;99209.38;;;-1.00;100.00
55217;BME280;41086;46.736;15.666;2023-02-03T03:06:51;99215.31;;;-0.87;100.00
55217;BME280;41086;46.736;15.666;2023-02-03T03:09:41;99196.22;;;-0.88;100.00
55217;BME280;41086;46.736;15.666;2023-02-03T03:12:23;99203.25;;;-0.96;100.00
55217;BME280;41086;46.736;15.666;2023-02-03T03:14:58;99204.16;;;-0.99;100.00
55217;BME280;41086;46.736;15.666;2023-02-03T03:17:31;99208.53;;;-1.04;100.00
55217;BME280;41086;46.736;15.666;2023-02-03T03:20:10;99200.00;;;-1.20;100.00
55217;BME280;41086;46.736;15.666;2023-02-03T03:22:47;99162.72;;;-1.16;100.00
55217;BME280;41086;46.736;15.666;2023-02-03T03:25:18;99167.75;;;-1.03;100.00
55217;BME280;41086;46.736;15.666;2023-02-03T03:27:58;99178.16;;;-1.00;100.00
55217;BME280;41086;46.736;15.666;2023-02-03T03:30:36;99186.09;;;-1.13;100.00
55217;BME280;41086;46.736;15.666;2023-02-03T03:33:05;99176.56;;;-1.14;100.00
55217;BME280;41086;46.736;15.666;2023-02-03T03:38:15;99184.25;;;-1.03;100.00
55217;BME280;41086;46.736;15.666;2023-02-03T03:40:52;99194.75;;;-1.10;100.00
55217;BME280;41086;46.736;15.666;2023-02-03T03:43:26;99200.78;;;-1.08;100.00
55217;BME280;41086;46.736;15.666;2023-02-03T03:48:50;99189.47;;;-1.04;100.00
55217;BME280;41086;46.736;15.666;2023-02-03T03:54:00;99196.38;;;-1.02;100.00
55217;BME280;41086;46.736;15.666;2023-02-03T03:56:35;99188.59;;;-1.05;100.00
55217;BME280;41086;46.736;15.666;2023-02-03T03:59:05;99201.66;;;-1.08;100.00
55217;BME280;41086;46.736;15.666;2023-02-03T04:01:32;99195.63;;;-1.13;100.00
55217;BME280;41086;46.736;15.666;2023-02-03T04:04:02;99201.72;;;-1.17;100.00
55217;BME280;41086;46.736;15.666;2023-02-03T04:06:31;99213.97;;;-1.28;100.00
55217;BME280;41086;46.736;15.666;2023-02-03T04:08:58;99207.03;;;-1.28;100.00
55217;BME280;41086;46.736;15.666;2023-02-03T04:11:24;99196.59;;;-1.22;100.00
55217;BME280;41086;46.736;15.666;2023-02-03T04:14:10;99203.56;;;-1.27;100.00
55217;BME280;41086;46.736;15.666;2023-02-03T04:16:36;99215.75;;;-1.34;100.00
55217;BME280;41086;46.736;15.666;2023-02-03T04:19:03;99209.66;;;-1.31;100.00
55217;BME280;41086;46.736;15.666;2023-02-03T04:21:33;99200.28;;;-1.47;100.00
55217;BME280;41086;46.736;15.666;2023-02-03T04:24:00;99182.06;;;-1.47;100.00
55217;BME280;41086;46.736;15.666;2023-02-03T04:26:27;99194.16;;;-1.40;100.00
55217;BME280;41086;46.736;15.666;2023-02-03T04:28:54;99195.00;;;-1.38;100.00
55217;BME280;41086;46.736;15.666;2023-02-03T04:31:20;99194.22;;;-1.46;100.00
55217;BME280;41086;46.736;15.666;2023-02-03T04:33:47;99188.09;;;-1.42;100.00
55217;BME280;41086;46.736;15.666;2023-02-03T04:36:14;99198.47;;;-1.39;100.00
55217;BME280;41086;46.736;15.666;2023-02-03T04:38:41;99182.91;;;-1.41;100.00
55217;BME280;41086;46.736;15.666;2023-02-03T04:41:08;99173.31;;;-1.39;100.00
55217;BME280;41086;46.736;15.666;2023-02-03T04:43:35;99180.19;;;-1.31;100.00
55217;BME280;41086;46.736;15.666;2023-02-03T04:46:01;99183.66;;;-1.31;100.00
55217;BME280;41086;46.736;15.666;2023-02-03T04:48:28;99187.09;;;-1.29;100.00
55217;BME280;41086;46.736;15.666;2023-02-03T04:51:00;99175.88;;;-1.32;100.00
55217;BME280;41086;46.736;15.666;2023-02-03T04:53:28;99180.19;;;-1.30;100.00
55217;BME280;41086;46.736;15.666;2023-02-03T04:55:55;99165.41;;;-1.28;100.00
55217;BME280;41086;46.736;15.666;2023-02-03T04:58:22;99185.25;;;-1.16;100.00
55217;BME280;41086;46.736;15.666;2023-02-03T05:00:49;99183.47;;;-1.11;100.00
55217;BME280;41086;46.736;15.666;2023-02-03T05:03:16;99184.38;;;-1.14;100.00
55217;BME280;41086;46.736;15.666;2023-02-03T05:05:43;99175.59;;;-1.06;100.00
55217;BME280;41086;46.736;15.666;2023-02-03T05:08:09;99159.16;;;-1.08;100.00
55217;BME280;41086;46.736;15.666;2023-02-03T05:10:36;99172.97;;;-1.03;100.00
55217;BME280;41086;46.736;15.666;2023-02-03T05:13:03;99160.06;;;-1.11;100.00
55217;BME280;41086;46.736;15.666;2023-02-03T05:15:30;99154.03;;;-1.16;100.00
55217;BME280;41086;46.736;15.666;2023-02-03T05:17:56;99150.44;;;-1.06;100.00
55217;BME280;41086;46.736;15.666;2023-02-03T05:20:23;99152.19;;;-1.06;100.00
55217;BME280;41086;46.736;15.666;2023-02-03T05:22:50;99148.69;;;-1.04;100.00
55217;BME280;41086;46.736;15.666;2023-02-03T05:25:17;99148.66;;;-0.99;100.00
55217;BME280;41086;46.736;15.666;2023-02-03T05:27:44;99144.22;;;-0.93;100.00
55217;BME280;41086;46.736;15.666;2023-02-03T05:30:11;99143.31;;;-0.88;100.00
55217;BME280;41086;46.736;15.666;2023-02-03T05:32:38;99138.94;;;-0.85;100.00
55217;BME280;41086;46.736;15.666;2023-02-03T05:35:04;99127.63;;;-0.82;100.00
55217;BME280;41086;46.736;15.666;2023-02-03T05:37:31;99141.50;;;-0.80;100.00
55217;BME280;41086;46.736;15.666;2023-02-03T05:39:58;99134.59;;;-0.84;100.00
55217;BME280;41086;46.736;15.666;2023-02-03T05:42:47;99135.66;;;-0.99;100.00
55217;BME280;41086;46.736;15.666;2023-02-03T05:45:14;99129.41;;;-0.87;100.00
55217;BME280;41086;46.736;15.666;2023-02-03T05:47:41;99137.19;;;-0.83;100.00
55217;BME280;41086;46.736;15.666;2023-02-03T05:50:08;99138.97;;;-0.88;100.00
55217;BME280;41086;46.736;15.666;2023-02-03T05:52:35;99127.75;;;-0.93;100.00
55217;BME280;41086;46.736;15.666;2023-02-03T05:55:02;99143.28;;;-0.84;100.00
55217;BME280;41086;46.736;15.666;2023-02-03T05:57:29;99142.44;;;-0.87;100.00
55217;BME280;41086;46.736;15.666;2023-02-03T05:59:57;99139.78;;;-0.84;100.00
55217;BME280;41086;46.736;15.666;2023-02-03T06:02:24;99146.03;;;-0.98;100.00
55217;BME280;41086;46.736;15.666;2023-02-03T06:04:51;99131.31;;;-1.00;100.00
55217;BME280;41086;46.736;15.666;2023-02-03T06:07:18;99136.41;;;-0.90;100.00
55217;BME280;41086;46.736;15.666;2023-02-03T06:09:45;99118.19;;;-0.91;100.00
55217;BME280;41086;46.736;15.666;2023-02-03T06:12:11;99081.09;;;-1.05;100.00
55217;BME280;41086;46.736;15.666;2023-02-03T06:14:38;99125.91;;;-0.83;100.00
55217;BME280;41086;46.736;15.666;2023-02-03T06:17:05;99099.25;;;-1.02;100.00
55217;BME280;41086;46.736;15.666;2023-02-03T06:19:32;99119.09;;;-0.92;100.00
55217;BME280;41086;46.736;15.666;2023-02-03T06:21:58;99113.13;;;-1.00;100.00
55217;BME280;41086;46.736;15.666;2023-02-03T06:24:25;99093.16;;;-1.01;100.00
55217;BME280;41086;46.736;15.666;2023-02-03T06:26:52;99092.19;;;-0.93;100.00
55217;BME280;41086;46.736;15.666;2023-02-03T06:29:19;99100.88;;;-0.94;100.00
55217;BME280;41086;46.736;15.666;2023-02-03T06:31:46;99108.69;;;-0.92;100.00
55217;BME280;41086;46.736;15.666;2023-02-03T06:34:13;99103.41;;;-0.87;100.00
55217;BME280;41086;46.736;15.666;2023-02-03T06:36:39;99108.56;;;-0.84;100.00
55217;BME280;41086;46.736;15.666;2023-02-03T06:39:06;99117.19;;;-0.79;100.00
55217;BME280;41086;46.736;15.666;2023-02-03T06:41:33;99111.06;;;-0.77;100.00
55217;BME280;41086;46.736;15.666;2023-02-03T06:44:00;99107.53;;;-0.71;100.00
55217;BME280;41086;46.736;15.666;2023-02-03T06:46:27;99107.47;;;-0.65;100.00
55217;BME280;41086;46.736;15.666;2023-02-03T06:48:55;99111.72;;;-0.59;100.00
55217;BME280;41086;46.736;15.666;2023-02-03T06:51:22;99103.88;;;-0.56;100.00
55217;BME280;41086;46.736;15.666;2023-02-03T06:53:50;99121.25;;;-0.57;100.00
55217;BME280;41086;46.736;15.666;2023-02-03T06:56:17;99114.25;;;-0.53;100.00
55217;BME280;41086;46.736;15.666;2023-02-03T06:58:44;99119.44;;;-0.53;100.00
55217;BME280;41086;46.736;15.666;2023-02-03T07:01:11;99115.25;;;-0.63;100.00
55217;BME280;41086;46.736;15.666;2023-02-03T07:03:37;99099.75;;;-0.73;100.00
55217;BME280;41086;46.736;15.666;2023-02-03T07:06:05;99097.19;;;-0.76;100.00
55217;BME280;41086;46.736;15.666;2023-02-03T07:08:32;99091.22;;;-0.85;100.00
55217;BME280;41086;46.736;15.666;2023-02-03T07:10:58;99092.91;;;-0.80;100.00
55217;BME280;41086;46.736;15.666;2023-02-03T07:13:25;99100.75;;;-0.81;100.00
55217;BME280;41086;46.736;15.666;2023-02-03T07:15:52;99112.06;;;-0.87;100.00
55217;BME280;41086;46.736;15.666;2023-02-03T07:18:19;99117.22;;;-0.82;100.00
55217;BME280;41086;46.736;15.666;2023-02-03T07:21:10;99109.44;;;-0.84;100.00
55217;BME280;41086;46.736;15.666;2023-02-03T07:23:37;99115.56;;;-0.86;100.00
55217;BME280;41086;46.736;15.666;2023-02-03T07:26:05;99116.34;;;-0.81;100.00
55217;BME280;41086;46.736;15.666;2023-02-03T07:28:33;99083.53;;;-0.93;100.00
55217;BME280;41086;46.736;15.666;2023-02-03T07:31:01;99109.31;;;-0.76;100.00
55217;BME280;41086;46.736;15.666;2023-02-03T07:33:30;99087.53;;;-0.68;100.00
55217;BME280;41086;46.736;15.666;2023-02-03T07:35:58;99096.97;;;-0.60;100.00
55217;BME280;41086;46.736;15.666;2023-02-03T07:38:26;99097.78;;;-0.55;100.00
55217;BME280;41086;46.736;15.666;2023-02-03T07:40:54;99097.66;;;-0.48;100.00
55217;BME280;41086;46.736;15.666;2023-02-03T07:43:21;99085.53;;;-0.49;100.00
55217;BME280;41086;46.736;15.666;2023-02-03T07:45:48;99087.00;;;-0.31;100.00
55217;BME280;41086;46.736;15.666;2023-02-03T07:48:15;99091.41;;;-0.34;100.00
55217;BME280;41086;46.736;15.666;2023-02-03T07:50:42;99086.81;;;-0.18;100.00
55217;BME280;41086;46.736;15.666;2023-02-03T07:53:08;99082.25;;;-0.04;100.00
55217;BME280;41086;46.736;15.666;2023-02-03T07:55:38;99061.28;;;0.02;100.00
55217;BME280;41086;46.736;15.666;2023-02-03T07:58:06;99068.06;;;0.14;100.00
55217;BME280;41086;46.736;15.666;2023-02-03T08:00:32;99062.03;;;0.10;100.00
55217;BME280;41086;46.736;15.666;2023-02-03T08:03:00;99052.38;;;0.17;100.00
55217;BME280;41086;46.736;15.666;2023-02-03T08:05:27;99044.50;;;0.18;100.00
55217;BME280;41086;46.736;15.666;2023-02-03T08:07:56;99069.78;;;0.13;100.00
55217;BME280;41086;46.736;15.666;2023-02-03T08:10:23;99054.06;;;0.19;100.00
55217;BME280;41086;46.736;15.666;2023-02-03T08:12:53;99060.44;;;0.02;100.00
55217;BME280;41086;46.736;15.666;2023-02-03T08:15:20;99051.81;;;-0.02;100.00
55217;BME280;41086;46.736;15.666;2023-02-03T08:17:47;99079.44;;;0.08;100.00
55217;BME280;41086;46.736;15.666;2023-02-03T08:20:14;99085.91;;;-0.16;100.00
55217;BME280;41086;46.736;15.666;2023-02-03T08:22:42;99077.03;;;-0.06;100.00
55217;BME280;41086;46.736;15.666;2023-02-03T08:25:09;99092.03;;;-0.18;100.00
55217;BME280;41086;46.736;15.666;2023-02-03T08:27:37;99088.78;;;-0.34;100.00
55217;BME280;41086;46.736;15.666;2023-02-03T08:30:05;99077.00;;;-0.58;100.00
55217;BME280;41086;46.736;15.666;2023-02-03T08:32:33;99096.16;;;-0.62;100.00
55217;BME280;41086;46.736;15.666;2023-02-03T08:35:00;99087.50;;;-0.66;100.00
55217;BME280;41086;46.736;15.666;2023-02-03T08:37:27;99094.25;;;-0.53;100.00
55217;BME280;41086;46.736;15.666;2023-02-03T08:39:58;99082.75;;;-0.36;100.00
55217;BME280;41086;46.736;15.666;2023-02-03T08:42:25;99078.97;;;-0.17;100.00
55217;BME280;41086;46.736;15.666;2023-02-03T08:44:52;99077.19;;;-0.13;100.00
55217;BME280;41086;46.736;15.666;2023-02-03T08:47:19;99083.88;;;0.02;100.00
55217;BME280;41086;46.736;15.666;2023-02-03T08:49:46;99081.09;;;0.14;100.00
55217;BME280;41086;46.736;15.666;2023-02-03T08:52:13;99087.94;;;0.19;100.00
55217;BME280;41086;46.736;15.666;2023-02-03T08:54:43;99086.78;;;0.36;100.00
55217;BME280;41086;46.736;15.666;2023-02-03T08:57:12;99097.91;;;0.46;100.00
55217;BME280;41086;46.736;15.666;2023-02-03T08:59:40;99095.38;;;-0.10;100.00
55217;BME280;41086;46.736;15.666;2023-02-03T09:02:12;99114.19;;;0.09;100.00
55217;BME280;41086;46.736;15.666;2023-02-03T09:04:39;99101.75;;;0.25;100.00
55217;BME280;41086;46.736;15.666;2023-02-03T09:07:06;99111.25;;;0.29;100.00
55217;BME280;41086;46.736;15.666;2023-02-03T09:09:33;99093.75;;;0.35;100.00
55217;BME280;41086;46.736;15.666;2023-02-03T09:12:00;99097.41;;;0.24;100.00
55217;BME280;41086;46.736;15.666;2023-02-03T09:14:28;99084.38;;;0.24;100.00
55217;BME280;41086;46.736;15.666;2023-02-03T09:16:55;99113.09;;;0.22;100.00
55217;BME280;41086;46.736;15.666;2023-02-03T09:19:22;99079.16;;;0.25;100.00
55217;BME280;41086;46.736;15.666;2023-02-03T09:21:49;99074.75;;;0.27;100.00
55217;BME280;41086;46.736;15.666;2023-02-03T09:24:17;99070.19;;;0.40;100.00
55217;BME280;41086;46.736;15.666;2023-02-03T09:26:44;99072.47;;;0.58;100.00
55217;BME280;41086;46.736;15.666;2023-02-03T09:29:11;99062.03;;;0.57;100.00
55217;BME280;41086;46.736;15.666;2023-02-03T09:31:38;99059.34;;;0.63;100.00
55217;BME280;41086;46.736;15.666;2023-02-03T09:34:05;99042.56;;;0.75;100.00
55217;BME280;41086;46.736;15.666;2023-02-03T09:36:32;99037.91;;;0.91;100.00
55217;BME280;41086;46.736;15.666;2023-02-03T09:38:59;99031.50;;;1.05;100.00
55217;BME280;41086;46.736;15.666;2023-02-03T09:44:21;99055.59;;;1.20;100.00
55217;BME280;41086;46.736;15.666;2023-02-03T09:46:55;99067.88;;;1.15;100.00
55217;BME280;41086;46.736;15.666;2023-02-03T09:49:56;99067.06;;;1.11;100.00
55217;BME280;41086;46.736;15.666;2023-02-03T09:52:27;99028.75;;;1.50;100.00
55217;BME280;41086;46.736;15.666;2023-02-03T09:55:33;99088.41;;;1.31;100.00
55217;BME280;41086;46.736;15.666;2023-02-03T10:00:38;99070.88;;;1.37;100.00
55217;BME280;41086;46.736;15.666;2023-02-03T10:20:10;98991.97;;;2.59;100.00
55217;BME280;41086;46.736;15.666;2023-02-03T10:22:53;99058.84;;;3.01;100.00
55217;BME280;41086;46.736;15.666;2023-02-03T10:25:41;99074.88;;;3.49;100.00
55217;BME280;41086;46.736;15.666;2023-02-03T10:28:15;99090.94;;;3.95;100.00
55217;BME280;41086;46.736;15.666;2023-02-03T10:30:59;99065.06;;;4.37;100.00
55217;BME280;41086;46.736;15.666;2023-02-03T10:33:28;99087.91;;;4.60;100.00
55217;BME280;41086;46.736;15.666;2023-02-03T10:36:21;99070.13;;;5.16;100.00
55217;BME280;41086;46.736;15.666;2023-02-03T10:41:37;99072.91;;;6.04;100.00
55217;BME280;41086;46.736;15.666;2023-02-03T10:44:07;99083.47;;;6.24;100.00
55217;BME280;41086;46.736;15.666;2023-02-03T10:46:38;99057.31;;;6.41;100.00
55217;BME280;41086;46.736;15.666;2023-02-03T10:49:09;99074.34;;;6.53;100.00
55217;BME280;41086;46.736;15.666;2023-02-03T10:51:50;99052.56;;;6.50;100.00
55217;BME280;41086;46.736;15.666;2023-02-03T10:54:32;99048.56;;;7.01;100.00
55217;BME280;41086;46.736;15.666;2023-02-03T10:57:17;99059.13;;;7.58;100.00
55217;BME280;41086;46.736;15.666;2023-02-03T10:59:46;99054.72;;;7.58;100.00
55217;BME280;41086;46.736;15.666;2023-02-03T11:02:24;99035.09;;;7.64;100.00
55217;BME280;41086;46.736;15.666;2023-02-03T11:05:20;99034.25;;;7.99;100.00
55217;BME280;41086;46.736;15.666;2023-02-03T11:07:47;99019.94;;;7.86;100.00
55217;BME280;41086;46.736;15.666;2023-02-03T11:10:27;99009.25;;;7.70;100.00
55217;BME280;41086;46.736;15.666;2023-02-03T11:13:10;98995.59;;;8.33;100.00
55217;BME280;41086;46.736;15.666;2023-02-03T11:15:58;98989.44;;;8.68;100.00
55217;BME280;41086;46.736;15.666;2023-02-03T11:18:42;98970.47;;;9.08;100.00
55217;BME280;41086;46.736;15.666;2023-02-03T11:21:15;98976.22;;;9.32;100.00
55217;BME280;41086;46.736;15.666;2023-02-03T11:23:46;98983.06;;;9.37;100.00
55217;BME280;41086;46.736;15.666;2023-02-03T11:26:18;98975.72;;;9.26;100.00
55217;BME280;41086;46.736;15.666;2023-02-03T11:28:48;98960.09;;;9.21;100.00
55217;BME280;41086;46.736;15.666;2023-02-03T11:31:18;98960.69;;;9.26;100.00
55217;BME280;41086;46.736;15.666;2023-02-03T11:33:48;98948.47;;;8.92;100.00
55217;BME280;41086;46.736;15.666;2023-02-03T11:36:16;98946.34;;;8.99;100.00
55217;BME280;41086;46.736;15.666;2023-02-03T11:38:44;98936.53;;;9.01;100.00
55217;BME280;41086;46.736;15.666;2023-02-03T11:41:19;98944.16;;;9.23;100.00
55217;BME280;41086;46.736;15.666;2023-02-03T11:43:54;98932.22;;;9.31;100.00
55217;BME280;41086;46.736;15.666;2023-02-03T11:46:21;98929.56;;;9.31;100.00
55217;BME280;41086;46.736;15.666;2023-02-03T11:56:58;98898.16;;;9.25;100.00
55217;BME280;41086;46.736;15.666;2023-02-03T12:07:52;98870.47;;;9.77;100.00
55217;BME280;41086;46.736;15.666;2023-02-03T12:13:17;98845.84;;;10.05;100.00
55217;BME280;41086;46.736;15.666;2023-02-03T12:27:02;98832.72;;;9.29;100.00
55217;BME280;41086;46.736;15.666;2023-02-03T12:29:44;98811.53;;;8.51;100.00
55217;BME280;41086;46.736;15.666;2023-02-03T12:35:19;98821.25;;;8.51;100.00
55217;BME280;41086;46.736;15.666;2023-02-03T12:38:12;98807.19;;;8.17;100.00
55217;BME280;41086;46.736;15.666;2023-02-03T12:41:00;98799.63;;;8.27;100.00
55217;BME280;41086;46.736;15.666;2023-02-03T12:43:45;98802.41;;;8.41;100.00
55217;BME280;41086;46.736;15.666;2023-02-03T12:46:29;98785.06;;;8.35;100.00
55217;BME280;41086;46.736;15.666;2023-02-03T12:49:26;98787.63;;;8.21;100.00
55217;BME280;41086;46.736;15.666;2023-02-03T12:52:04;98783.44;;;8.33;100.00
55217;BME280;41086;46.736;15.666;2023-02-03T12:57:29;98758.66;;;8.35;100.00
55217;BME280;41086;46.736;15.666;2023-02-03T13:00:10;98748.97;;;8.52;100.00
55217;BME280;41086;46.736;15.666;2023-02-03T13:02:51;98732.97;;;8.55;100.00
55217;BME280;41086;46.736;15.666;2023-02-03T13:05:33;98727.94;;;8.66;100.00
55217;BME280;41086;46.736;15.666;2023-02-03T13:10:54;98718.94;;;8.84;100.00
55217;BME280;41086;46.736;15.666;2023-02-03T13:13:35;98700.13;;;8.75;100.00
55217;BME280;41086;46.736;15.666;2023-02-03T13:16:06;98687.41;;;8.81;100.00
55217;BME280;41086;46.736;15.666;2023-02-03T13:18:41;98687.22;;;9.15;100.00
55217;BME280;41086;46.736;15.666;2023-02-03T13:21:10;98675.53;;;9.33;100.00
55217;BME280;41086;46.736;15.666;2023-02-03T13:23:41;98696.06;;;9.44;100.00
55217;BME280;41086;46.736;15.666;2023-02-03T13:26:19;98688.03;;;9.31;100.00
55217;BME280;41086;46.736;15.666;2023-02-03T13:29:13;98680.00;;;9.47;100.00
55217;BME280;41086;46.736;15.666;2023-02-03T13:40:57;98663.84;;;9.51;96.55
55217;BME280;41086;46.736;15.666;2023-02-03T13:43:33;98647.97;;;9.80;100.00
55217;BME280;41086;46.736;15.666;2023-02-03T13:46:07;98636.19;;;9.98;100.00
55217;BME280;41086;46.736;15.666;2023-02-03T13:48:44;98625.88;;;10.08;100.00
55217;BME280;41086;46.736;15.666;2023-02-03T13:51:21;98624.44;;;10.17;98.17
55217;BME280;41086;46.736;15.666;2023-02-03T13:53:51;98624.91;;;10.09;83.00
55217;BME280;41086;46.736;15.666;2023-02-03T13:56:25;98603.91;;;9.93;82.73
55217;BME280;41086;46.736;15.666;2023-02-03T14:01:40;98603.56;;;9.28;78.53
55217;BME280;41086;46.736;15.666;2023-02-03T14:04:50;98592.69;;;9.47;82.26
55217;BME280;41086;46.736;15.666;2023-02-03T14:06:57;98584.38;;;9.53;82.78
55217;BME280;41086;46.736;15.666;2023-02-03T14:20:31;98560.28;;;9.43;80.67
55217;BME280;41086;46.736;15.666;2023-02-03T14:22:53;98565.78;;;9.40;81.75
55217;BME280;41086;46.736;15.666;2023-02-03T14:25:23;98545.56;;;9.25;80.03
55217;BME280;41086;46.736;15.666;2023-02-03T14:28:18;98554.25;;;9.27;78.94
55217;BME280;41086;46.736;15.666;2023-02-03T14:31:01;98547.38;;;9.24;77.68
55217;BME280;41086;46.736;15.666;2023-02-03T14:34:10;98536.03;;;9.22;76.62
55217;BME280;41086;46.736;15.666;2023-02-03T14:36:45;98530.09;;;9.04;78.75
55217;BME280;41086;46.736;15.666;2023-02-03T14:44:30;98496.22;;;8.82;80.31
55217;BME280;41086;46.736;15.666;2023-02-03T14:47:25;98473.09;;;8.72;80.78
55217;BME280;41086;46.736;15.666;2023-02-03T14:58:34;98443.06;;;8.58;79.30
55217;BME280;41086;46.736;15.666;2023-02-03T15:01:03;98442.88;;;8.47;77.14
55217;BME280;41086;46.736;15.666;2023-02-03T15:03:30;98430.06;;;8.55;79.02
55217;BME280;41086;46.736;15.666;2023-02-03T15:06:03;98426.34;;;8.43;77.54
55217;BME280;41086;46.736;15.666;2023-02-03T15:13:50;98422.88;;;8.43;76.50
55217;BME280;41086;46.736;15.666;2023-02-03T15:16:19;98406.53;;;8.36;78.08
55217;BME280;41086;46.736;15.666;2023-02-03T15:18:59;98424.25;;;8.34;78.88
55217;BME280;41086;46.736;15.666;2023-02-03T15:21:26;98432.06;;;8.36;88.05
55217;BME280;41086;46.736;15.666;2023-02-03T15:23:53;98429.22;;;8.25;98.46